Lum, Michigan
Current Conditions -  °F | °C
As of 9:33 AM on Wednesday 22 Oct 2014 (Local Time) from KD95 Reporting Station
Overcast Overcast  
Wind Chill: 40°   Ceiling: 1900
Heat Index: 44°   Visibility: 10mi
Dew Point: 38°   Wind: 7mph
Humidity: 80%   Direction: 10°N
Pressure: 30.35"   Gusts: NA
Location:  43.0581°N, 83.167°W
Report Text: KD95 221333Z AUTO 01006KT 10SM OVC019 07/03 A3035 RMK AO2 T00670034
Loading
Personal Weather Stations






























Interactive Weather Map
Tropical Storm Tracking
New forecast layout! Learn more

10-Day Weather Forecast

Advertisements
Track Severe Weather on mobile